createdAt,value
2023-05-07T00:00:25.503Z,22.50
2023-05-07T00:02:52.264Z,22.61
2023-05-07T00:05:20.193Z,22.38
2023-05-07T00:07:47.914Z,22.39
2023-05-07T00:10:14.857Z,22.23
2023-05-07T00:12:41.892Z,22.09
2023-05-07T00:15:09.991Z,22.07
2023-05-07T00:17:37.150Z,22.04
2023-05-07T00:20:04.823Z,22.13
2023-05-07T00:22:33.284Z,22.24
2023-05-07T00:25:00.218Z,21.94
2023-05-07T00:27:26.999Z,22.09
2023-05-07T00:29:53.708Z,21.57
2023-05-07T00:32:20.740Z,21.40
2023-05-07T00:34:47.592Z,21.60
2023-05-07T00:37:14.375Z,21.40
2023-05-07T00:39:41.154Z,21.20
2023-05-07T00:42:09.140Z,21.13
2023-05-07T00:44:35.862Z,21.16
2023-05-07T00:47:03.614Z,21.05
2023-05-07T00:49:42.301Z,21.09
2023-05-07T00:52:10.620Z,21.01
2023-05-07T00:54:37.399Z,21.19
2023-05-07T00:57:04.955Z,21.10
2023-05-07T00:59:32.857Z,20.95
2023-05-07T01:02:00.477Z,21.24
2023-05-07T01:04:27.573Z,21.04
2023-05-07T01:06:57.746Z,20.95
2023-05-07T01:09:28.017Z,20.97
2023-05-07T01:11:55.012Z,20.87
2023-05-07T01:14:21.796Z,21.02
2023-05-07T01:16:49.406Z,20.55
2023-05-07T01:19:18.311Z,20.54
2023-05-07T01:21:46.855Z,20.38
2023-05-07T01:24:13.881Z,20.61
2023-05-07T01:26:41.064Z,20.69
2023-05-07T01:29:07.936Z,20.59
2023-05-07T01:31:35.692Z,20.74
2023-05-07T01:34:03.269Z,20.71
2023-05-07T01:36:31.327Z,20.71
2023-05-07T01:38:59.102Z,20.86
2023-05-07T01:41:26.007Z,20.86
2023-05-07T01:43:53.211Z,20.78
2023-05-07T01:46:20.010Z,20.89
2023-05-07T01:48:47.192Z,20.77
2023-05-07T01:51:14.285Z,20.95
2023-05-07T01:53:41.795Z,21.06
2023-05-07T01:56:09.053Z,20.93
2023-05-07T01:58:36.877Z,20.98
2023-05-07T02:01:03.644Z,20.74
2023-05-07T02:03:31.801Z,20.63
2023-05-07T02:06:02.678Z,20.67
2023-05-07T02:08:35.556Z,20.62
2023-05-07T02:11:03.298Z,20.77
2023-05-07T02:13:32.467Z,20.97
2023-05-07T02:15:59.216Z,21.65
2023-05-07T02:18:27.826Z,22.03
2023-05-07T02:20:54.867Z,21.29
2023-05-07T02:23:21.760Z,21.08
2023-05-07T02:25:48.767Z,20.95
2023-05-07T02:28:16.432Z,21.03
2023-05-07T02:30:55.855Z,21.08
2023-05-07T02:33:22.813Z,21.07
2023-05-07T02:35:49.733Z,20.86
2023-05-07T02:38:16.507Z,20.88
2023-05-07T02:40:43.882Z,20.92
2023-05-07T02:43:10.740Z,21.07
2023-05-07T02:45:38.845Z,21.22
2023-05-07T02:48:07.416Z,21.15
2023-05-07T02:50:34.282Z,21.30
2023-05-07T02:53:01.273Z,21.13
2023-05-07T02:55:28.276Z,21.00
2023-05-07T02:57:55.107Z,21.29
2023-05-07T03:00:22.817Z,21.39
2023-05-07T03:03:01.219Z,21.45
2023-05-07T03:05:28.118Z,21.46
2023-05-07T03:07:54.879Z,21.24
2023-05-07T03:10:21.591Z,21.41
2023-05-07T03:12:48.374Z,21.34
2023-05-07T03:15:16.340Z,21.73
2023-05-07T03:17:43.243Z,21.63
2023-05-07T03:20:11.443Z,21.27
2023-05-07T03:22:38.700Z,21.28
2023-05-07T03:25:06.509Z,20.95
2023-05-07T03:27:33.310Z,20.99
2023-05-07T03:30:00.518Z,20.98
2023-05-07T03:32:27.294Z,20.88
2023-05-07T03:34:54.279Z,21.17
2023-05-07T03:37:22.736Z,21.18
2023-05-07T03:39:49.798Z,20.98
2023-05-07T03:42:16.951Z,21.01
2023-05-07T03:44:43.652Z,20.80
2023-05-07T03:47:11.342Z,20.90
2023-05-07T03:49:38.713Z,21.00
2023-05-07T03:52:06.446Z,20.96
2023-05-07T03:54:33.368Z,21.03
2023-05-07T03:57:00.506Z,20.82
2023-05-07T03:59:27.507Z,20.90
2023-05-07T04:01:54.320Z,20.59
2023-05-07T04:04:22.753Z,20.48
2023-05-07T04:06:49.632Z,20.52
2023-05-07T04:09:16.430Z,20.58
2023-05-07T04:11:45.081Z,20.62
2023-05-07T04:14:11.937Z,20.63
2023-05-07T04:16:39.248Z,20.76
2023-05-07T04:19:06.829Z,20.86
2023-05-07T04:21:34.137Z,20.84
2023-05-07T04:24:01.132Z,21.07
2023-05-07T04:26:29.457Z,21.11
2023-05-07T04:28:56.469Z,21.06
2023-05-07T04:31:23.330Z,21.04
2023-05-07T04:33:52.602Z,21.20
2023-05-07T04:36:20.022Z,21.20
2023-05-07T04:38:51.383Z,21.07
2023-05-07T04:41:18.653Z,20.94
2023-05-07T04:43:45.688Z,21.05
2023-05-07T04:46:13.245Z,21.29
2023-05-07T04:48:40.359Z,21.41
2023-05-07T04:51:07.802Z,21.55
2023-05-07T04:53:34.648Z,21.40
2023-05-07T04:56:01.409Z,21.64
2023-05-07T04:58:33.217Z,21.61
2023-05-07T05:01:00.416Z,21.54
2023-05-07T05:03:27.375Z,21.54
2023-05-07T05:05:54.480Z,21.51
2023-05-07T05:08:21.910Z,21.59
2023-05-07T05:10:51.005Z,21.56
2023-05-07T05:13:18.654Z,21.50
2023-05-07T05:15:46.689Z,21.64
2023-05-07T05:18:13.749Z,21.38
2023-05-07T05:20:40.711Z,21.48
2023-05-07T05:23:08.889Z,21.51
2023-05-07T05:25:35.961Z,21.30
2023-05-07T05:28:03.224Z,21.01
2023-05-07T05:30:30.908Z,21.46
2023-05-07T05:32:57.874Z,20.82
2023-05-07T05:35:26.932Z,20.92
2023-05-07T05:37:53.663Z,21.17
2023-05-07T05:40:20.399Z,20.68
2023-05-07T05:42:47.680Z,20.39
2023-05-07T05:45:16.415Z,20.25
2023-05-07T05:47:45.810Z,20.39
2023-05-07T05:50:13.014Z,20.28
2023-05-07T05:52:41.985Z,20.23
2023-05-07T05:55:09.981Z,19.91
2023-05-07T05:57:36.944Z,19.97
2023-05-07T06:00:05.039Z,19.90
2023-05-07T06:02:33.090Z,19.51
2023-05-07T06:04:59.983Z,19.16
2023-05-07T06:07:26.938Z,19.08
2023-05-07T06:09:53.689Z,19.20
2023-05-07T06:12:20.658Z,18.99
2023-05-07T06:14:48.604Z,18.87
2023-05-07T06:17:16.938Z,18.85
2023-05-07T06:19:44.836Z,18.71
2023-05-07T06:22:12.120Z,18.93
2023-05-07T06:24:38.886Z,18.74
2023-05-07T06:27:05.807Z,18.23
2023-05-07T06:29:34.529Z,18.79
2023-05-07T06:32:09.622Z,18.70
2023-05-07T06:34:37.013Z,18.44
2023-05-07T06:37:03.832Z,18.30
2023-05-07T06:39:46.121Z,18.08
2023-05-07T06:42:13.364Z,17.96
2023-05-07T06:44:41.958Z,17.79
2023-05-07T06:49:39.815Z,18.08
2023-05-07T06:52:06.947Z,17.91
2023-05-07T06:54:33.838Z,18.14
2023-05-07T06:57:01.731Z,17.89
2023-05-07T06:59:28.558Z,17.55
2023-05-07T07:01:55.787Z,17.29
2023-05-07T07:04:25.170Z,17.17
2023-05-07T07:06:58.732Z,17.31
2023-05-07T07:09:26.055Z,17.32
2023-05-07T07:11:53.273Z,16.88
2023-05-07T07:14:21.369Z,16.79
2023-05-07T07:16:50.390Z,16.96
2023-05-07T07:19:18.123Z,17.04
2023-05-07T07:21:46.032Z,16.55
2023-05-07T07:24:14.687Z,16.20
2023-05-07T07:26:41.442Z,16.25
2023-05-07T07:29:08.471Z,16.15
2023-05-07T07:31:36.012Z,15.86
2023-05-07T07:34:03.061Z,16.05
2023-05-07T07:36:38.989Z,15.99
2023-05-07T07:39:14.162Z,16.12
2023-05-07T07:41:41.638Z,16.76
2023-05-07T07:44:08.643Z,16.52
2023-05-07T07:46:36.809Z,16.10
2023-05-07T07:49:04.015Z,15.68
2023-05-07T07:51:31.638Z,15.55
2023-05-07T07:53:58.968Z,15.46
2023-05-07T07:56:26.296Z,15.47
2023-05-07T07:58:53.150Z,15.09
2023-05-07T08:01:20.263Z,15.59
2023-05-07T08:03:47.297Z,15.49
2023-05-07T08:06:15.280Z,15.43
2023-05-07T08:08:42.615Z,15.21
2023-05-07T08:11:09.457Z,15.29
2023-05-07T08:13:37.217Z,15.48
2023-05-07T08:16:05.233Z,15.28
2023-05-07T08:18:32.762Z,15.41
2023-05-07T08:21:02.105Z,15.27
2023-05-07T08:23:29.278Z,15.43
2023-05-07T08:25:59.074Z,15.60
2023-05-07T08:28:26.234Z,15.55
2023-05-07T08:30:53.248Z,15.54
2023-05-07T08:33:20.229Z,15.30
2023-05-07T08:35:47.040Z,15.36
2023-05-07T08:38:14.307Z,15.18
2023-05-07T08:40:41.994Z,15.08
2023-05-07T08:43:13.776Z,15.23
2023-05-07T08:45:41.011Z,15.17
2023-05-07T08:48:16.596Z,14.73
2023-05-07T08:50:44.224Z,14.35
2023-05-07T08:53:11.334Z,13.98
2023-05-07T08:55:38.483Z,14.17
2023-05-07T08:58:05.286Z,14.54
2023-05-07T09:00:32.413Z,14.01
2023-05-07T09:02:59.771Z,13.95
2023-05-07T09:05:26.935Z,14.20
2023-05-07T09:07:54.701Z,13.92
2023-05-07T09:10:22.512Z,14.09
2023-05-07T09:12:49.781Z,13.96
2023-05-07T09:15:17.235Z,13.93
2023-05-07T09:17:44.626Z,13.94
2023-05-07T09:20:11.898Z,14.16
2023-05-07T09:22:39.422Z,14.18
2023-05-07T09:25:10.597Z,13.97
2023-05-07T09:27:38.466Z,14.30
2023-05-07T09:30:09.183Z,14.12
2023-05-07T09:32:39.118Z,14.25
2023-05-07T09:35:07.129Z,14.39
2023-05-07T09:37:34.576Z,14.37
2023-05-07T09:40:01.685Z,14.24
2023-05-07T09:42:29.070Z,14.34
2023-05-07T09:44:58.315Z,14.10
2023-05-07T09:47:27.220Z,14.05
2023-05-07T09:49:57.153Z,14.27
2023-05-07T09:52:24.079Z,14.18
2023-05-07T09:54:53.981Z,14.12
2023-05-07T09:57:22.361Z,13.94
2023-05-07T09:59:52.103Z,14.04
2023-05-07T10:02:19.384Z,13.92
2023-05-07T10:04:48.443Z,13.90
2023-05-07T10:07:16.129Z,13.87
2023-05-07T10:09:44.878Z,13.90
2023-05-07T10:12:18.664Z,13.80
2023-05-07T10:14:46.519Z,13.79
2023-05-07T10:17:13.598Z,13.65
2023-05-07T10:19:42.288Z,13.63
2023-05-07T10:22:09.575Z,14.11
2023-05-07T10:24:40.501Z,13.60
2023-05-07T10:27:12.349Z,13.86
2023-05-07T10:29:46.940Z,13.95
2023-05-07T10:32:42.127Z,13.85
2023-05-07T10:35:17.735Z,13.40
2023-05-07T10:37:45.876Z,13.34
2023-05-07T10:40:13.522Z,13.31
2023-05-07T10:42:57.193Z,13.61
2023-05-07T10:45:24.856Z,13.48
2023-05-07T10:48:29.738Z,13.32
2023-05-07T10:51:24.297Z,13.39
2023-05-07T10:54:13.030Z,13.74
2023-05-07T10:56:49.209Z,13.42
2023-05-07T10:59:24.148Z,13.18
2023-05-07T11:01:57.357Z,13.22
2023-05-07T11:04:36.020Z,13.21
2023-05-07T11:07:26.137Z,13.17
2023-05-07T11:09:54.618Z,13.63
2023-05-07T11:12:39.785Z,13.44
2023-05-07T11:15:13.239Z,13.68
2023-05-07T11:17:56.974Z,13.30
2023-05-07T11:20:46.969Z,13.59
2023-05-07T11:23:36.060Z,13.33
2023-05-07T11:26:15.539Z,13.32
2023-05-07T11:28:43.297Z,13.20
2023-05-07T11:31:10.936Z,13.49
2023-05-07T11:33:38.782Z,13.65
2023-05-07T11:37:41.168Z,15.40
2023-05-07T11:40:10.414Z,14.11
2023-05-07T11:42:39.036Z,13.69
2023-05-07T11:45:07.077Z,13.43
2023-05-07T11:47:34.284Z,13.35
2023-05-07T11:50:09.690Z,13.37
2023-05-07T11:52:38.711Z,13.26
2023-05-07T11:55:05.969Z,13.36
2023-05-07T11:57:33.931Z,13.05
2023-05-07T12:00:02.764Z,12.92
2023-05-07T12:02:39.823Z,12.98
2023-05-07T12:05:07.270Z,13.14
2023-05-07T12:07:37.324Z,13.25
2023-05-07T12:10:07.766Z,13.57
2023-05-07T12:12:43.258Z,13.38
2023-05-07T12:15:11.319Z,13.53
2023-05-07T12:17:38.663Z,13.46
2023-05-07T12:20:07.243Z,12.80
2023-05-07T12:22:34.030Z,13.17
2023-05-07T12:25:04.239Z,13.28
2023-05-07T12:27:31.688Z,13.38
2023-05-07T12:29:59.062Z,13.55
2023-05-07T12:32:25.891Z,13.48
2023-05-07T12:34:52.626Z,13.53
2023-05-07T12:37:24.573Z,13.55
2023-05-07T12:40:07.449Z,13.26
2023-05-07T12:42:36.472Z,13.10
2023-05-07T12:45:14.523Z,12.95
2023-05-07T12:47:46.196Z,13.06
2023-05-07T12:50:15.280Z,12.93
2023-05-07T12:52:42.156Z,13.03
2023-05-07T12:55:10.097Z,12.78
2023-05-07T12:57:41.295Z,12.82
2023-05-07T13:00:08.446Z,12.82
2023-05-07T13:02:36.019Z,12.94
2023-05-07T13:05:03.833Z,12.96
2023-05-07T13:07:30.967Z,13.10
2023-05-07T13:09:57.844Z,13.14
2023-05-07T13:12:25.550Z,12.97
2023-05-07T13:14:52.292Z,13.15
2023-05-07T13:17:19.862Z,13.39
2023-05-07T13:19:46.789Z,13.24
2023-05-07T13:22:13.524Z,13.73
2023-05-07T13:24:42.795Z,13.61
2023-05-07T13:27:09.583Z,13.57
2023-05-07T13:29:36.740Z,13.84
2023-05-07T13:32:03.629Z,13.45
2023-05-07T13:34:31.015Z,13.41
2023-05-07T13:36:57.754Z,13.19
2023-05-07T13:39:24.557Z,13.22
2023-05-07T13:41:51.294Z,13.40
2023-05-07T13:44:18.187Z,13.34
2023-05-07T13:46:44.894Z,13.81
2023-05-07T13:49:12.316Z,13.75
2023-05-07T13:51:39.130Z,13.67
2023-05-07T13:54:05.913Z,13.73
2023-05-07T13:56:33.512Z,13.44
2023-05-07T13:59:01.029Z,13.43
2023-05-07T14:01:28.324Z,13.77
2023-05-07T14:03:56.323Z,13.55
2023-05-07T14:06:23.108Z,13.81
2023-05-07T14:08:50.089Z,13.69
2023-05-07T14:11:17.247Z,13.51
2023-05-07T14:13:44.024Z,13.41
2023-05-07T14:16:10.935Z,13.44
2023-05-07T14:18:39.635Z,13.74
2023-05-07T14:21:10.830Z,14.05
2023-05-07T14:23:37.752Z,14.04
2023-05-07T14:26:04.703Z,13.59
2023-05-07T14:28:34.310Z,13.49
2023-05-07T14:31:01.257Z,13.42
2023-05-07T14:33:28.096Z,13.28
2023-05-07T14:35:54.886Z,13.48
2023-05-07T14:38:21.879Z,13.46
2023-05-07T14:40:48.651Z,13.69
2023-05-07T14:43:15.407Z,13.74
2023-05-07T14:45:42.193Z,13.46
2023-05-07T14:48:10.446Z,13.62
2023-05-07T14:50:37.846Z,13.50
2023-05-07T14:53:04.955Z,13.53
2023-05-07T14:55:33.389Z,13.30
2023-05-07T14:58:01.116Z,13.08
2023-05-07T15:00:27.839Z,13.01
2023-05-07T15:02:54.808Z,13.10
2023-05-07T15:05:21.681Z,13.07
2023-05-07T15:07:48.457Z,13.14
2023-05-07T15:10:15.335Z,13.19
2023-05-07T15:12:42.184Z,13.30
2023-05-07T15:15:13.069Z,13.41
2023-05-07T15:17:40.099Z,13.51
2023-05-07T15:20:07.823Z,13.30
2023-05-07T15:22:34.833Z,13.66
2023-05-07T15:25:01.666Z,13.49
2023-05-07T15:27:28.713Z,13.71
2023-05-07T15:29:55.864Z,13.70
2023-05-07T15:32:22.659Z,13.54
2023-05-07T15:34:49.522Z,13.85
2023-05-07T15:37:16.542Z,14.03
2023-05-07T15:39:43.338Z,14.01
2023-05-07T15:42:10.144Z,13.69
2023-05-07T15:44:36.839Z,13.76
2023-05-07T15:47:03.667Z,14.16
2023-05-07T15:49:30.742Z,13.90
2023-05-07T15:51:58.187Z,13.87
2023-05-07T15:54:25.401Z,14.15
2023-05-07T15:56:52.244Z,14.07
2023-05-07T15:59:20.200Z,14.17
2023-05-07T16:01:47.017Z,14.57
2023-05-07T16:04:13.828Z,14.51
2023-05-07T16:06:41.165Z,14.96
2023-05-07T16:09:10.275Z,14.58
2023-05-07T16:11:37.052Z,15.23
2023-05-07T16:14:03.801Z,15.17
2023-05-07T16:16:34.837Z,15.02
2023-05-07T16:19:01.742Z,15.67
2023-05-07T16:21:29.538Z,15.32
2023-05-07T16:23:56.283Z,15.45
2023-05-07T16:26:23.003Z,15.60
2023-05-07T16:28:49.833Z,15.68
2023-05-07T16:31:16.714Z,15.74
2023-05-07T16:33:43.450Z,15.92
2023-05-07T16:36:10.397Z,15.78
2023-05-07T16:38:37.215Z,16.02
2023-05-07T16:41:05.724Z,15.98
2023-05-07T16:43:32.881Z,16.28
2023-05-07T16:45:59.794Z,16.08
2023-05-07T16:48:26.568Z,16.15
2023-05-07T16:50:53.253Z,16.43
2023-05-07T16:53:20.577Z,16.38
2023-05-07T16:55:47.404Z,16.21
2023-05-07T16:58:15.380Z,16.35
2023-05-07T17:00:50.550Z,16.35
2023-05-07T17:03:18.640Z,16.58
2023-05-07T17:05:46.743Z,16.63
2023-05-07T17:08:14.064Z,16.77
2023-05-07T17:10:41.386Z,16.94
2023-05-07T17:13:08.229Z,17.11
2023-05-07T17:15:35.173Z,16.99
2023-05-07T17:18:02.115Z,16.92
2023-05-07T17:20:29.027Z,17.09
2023-05-07T17:22:56.113Z,17.19
2023-05-07T17:25:23.430Z,17.01
2023-05-07T17:27:50.366Z,16.93
2023-05-07T17:30:20.567Z,17.11
2023-05-07T17:32:47.316Z,16.92
2023-05-07T17:35:14.142Z,17.04
2023-05-07T17:37:41.678Z,17.39
2023-05-07T17:40:08.843Z,17.39
2023-05-07T17:42:35.745Z,17.62
2023-05-07T17:45:02.524Z,17.54
2023-05-07T17:47:30.067Z,17.61
2023-05-07T17:49:56.892Z,17.68
2023-05-07T17:52:24.405Z,17.50
2023-05-07T17:54:51.227Z,17.82
2023-05-07T17:57:17.970Z,17.75
2023-05-07T17:59:44.813Z,17.81
2023-05-07T18:02:11.624Z,17.81
2023-05-07T18:04:38.384Z,17.58
2023-05-07T18:07:05.231Z,17.70
2023-05-07T18:09:32.180Z,17.59
2023-05-07T18:11:58.910Z,17.44
2023-05-07T18:14:26.256Z,17.86
2023-05-07T18:16:54.186Z,18.07
2023-05-07T18:19:21.425Z,18.15
2023-05-07T18:21:49.140Z,18.12
2023-05-07T18:24:16.219Z,17.99
2023-05-07T18:26:43.023Z,17.94
2023-05-07T18:29:09.734Z,17.91
2023-05-07T18:31:38.063Z,17.93
2023-05-07T18:34:06.307Z,18.12
2023-05-07T18:36:33.247Z,18.14
2023-05-07T18:39:00.063Z,18.39
2023-05-07T18:41:26.868Z,18.55
2023-05-07T18:43:53.653Z,18.48
2023-05-07T18:46:20.669Z,18.79
2023-05-07T18:48:47.615Z,19.00
2023-05-07T18:51:14.374Z,19.12
2023-05-07T18:53:41.878Z,19.06
2023-05-07T18:56:08.850Z,19.01
2023-05-07T18:58:36.018Z,19.13
2023-05-07T19:01:05.731Z,18.69
2023-05-07T19:03:32.490Z,18.59
2023-05-07T19:05:59.518Z,18.48
2023-05-07T19:08:26.436Z,18.22
2023-05-07T19:10:56.442Z,18.15
2023-05-07T19:13:27.476Z,18.20
2023-05-07T19:15:54.818Z,18.48
2023-05-07T19:18:21.770Z,18.63
2023-05-07T19:20:50.010Z,18.33
2023-05-07T19:23:18.731Z,18.51
2023-05-07T19:25:45.588Z,18.60
2023-05-07T19:28:12.390Z,18.46
2023-05-07T19:30:40.418Z,18.85
2023-05-07T19:33:07.318Z,18.83
2023-05-07T19:35:35.462Z,18.47
2023-05-07T19:38:02.613Z,18.32
2023-05-07T19:40:29.574Z,18.35
2023-05-07T19:42:56.346Z,18.91
2023-05-07T19:45:23.138Z,19.32
2023-05-07T19:47:49.997Z,19.02
2023-05-07T19:50:17.104Z,19.03
2023-05-07T19:52:43.930Z,18.91
2023-05-07T19:55:10.786Z,18.67
2023-05-07T19:57:37.719Z,18.54
2023-05-07T20:00:06.734Z,18.61
2023-05-07T20:02:40.075Z,18.70
2023-05-07T20:05:08.578Z,18.92
2023-05-07T20:07:35.860Z,19.07
2023-05-07T20:10:02.884Z,18.98
2023-05-07T20:12:29.719Z,18.84
2023-05-07T20:14:56.496Z,18.95
2023-05-07T20:17:23.254Z,19.01
2023-05-07T20:19:50.290Z,19.11
2023-05-07T20:22:17.098Z,18.98
2023-05-07T20:24:43.896Z,18.98
2023-05-07T20:27:10.898Z,18.73
2023-05-07T20:29:37.689Z,18.40
2023-05-07T20:32:04.848Z,18.44
2023-05-07T20:34:32.565Z,18.33
2023-05-07T20:36:59.621Z,18.03
2023-05-07T20:39:26.453Z,17.97
2023-05-07T20:41:53.497Z,18.16
2023-05-07T20:44:20.330Z,17.94
2023-05-07T20:46:47.773Z,18.21
2023-05-07T20:49:14.972Z,18.64
2023-05-07T20:51:41.801Z,19.21
2023-05-07T20:54:08.826Z,19.31
2023-05-07T20:56:35.690Z,19.19
2023-05-07T20:59:02.438Z,19.06
2023-05-07T21:01:29.654Z,19.16
2023-05-07T21:03:56.721Z,19.19
2023-05-07T21:06:23.586Z,19.25
2023-05-07T21:08:50.363Z,19.40
2023-05-07T21:11:18.155Z,19.29
2023-05-07T21:13:45.169Z,19.35
2023-05-07T21:16:12.086Z,19.33
2023-05-07T21:18:38.994Z,19.03
2023-05-07T21:21:09.756Z,19.02
2023-05-07T21:23:36.890Z,19.25
2023-05-07T21:26:03.950Z,19.20
2023-05-07T21:28:31.018Z,19.10
2023-05-07T21:30:57.804Z,19.18
2023-05-07T21:33:24.580Z,18.87
2023-05-07T21:35:51.292Z,18.90
2023-05-07T21:38:18.994Z,19.13
2023-05-07T21:40:45.984Z,19.26
2023-05-07T21:43:12.808Z,19.16
2023-05-07T21:45:41.023Z,18.73
2023-05-07T21:48:07.946Z,18.90
2023-05-07T21:50:34.878Z,18.98
2023-05-07T21:53:01.703Z,18.90
2023-05-07T21:55:28.536Z,18.89
2023-05-07T21:58:04.946Z,19.07
2023-05-07T22:00:33.212Z,19.08
2023-05-07T22:03:00.386Z,18.96
2023-05-07T22:05:27.660Z,19.02
2023-05-07T22:07:54.387Z,19.14
2023-05-07T22:10:22.996Z,19.35
2023-05-07T22:12:51.123Z,19.60
2023-05-07T22:15:18.085Z,19.83
2023-05-07T22:17:44.995Z,19.82
2023-05-07T22:20:12.306Z,19.79
2023-05-07T22:22:51.854Z,19.73
2023-05-07T22:25:20.228Z,19.64
2023-05-07T22:27:47.103Z,19.64
2023-05-07T22:30:14.240Z,19.31
2023-05-07T22:32:44.692Z,19.32
2023-05-07T22:35:11.696Z,19.57
2023-05-07T22:37:38.531Z,19.56
2023-05-07T22:40:06.392Z,19.36
2023-05-07T22:42:33.212Z,19.49
2023-05-07T22:44:59.970Z,19.49
2023-05-07T22:47:29.415Z,19.24
2023-05-07T22:49:56.258Z,19.47
2023-05-07T22:52:23.011Z,19.73
2023-05-07T22:54:49.811Z,19.68
2023-05-07T22:57:16.647Z,19.58
2023-05-07T22:59:43.486Z,19.62
2023-05-07T23:02:10.474Z,19.75
2023-05-07T23:04:37.346Z,19.78
2023-05-07T23:07:04.207Z,19.59
2023-05-07T23:09:31.229Z,19.66
2023-05-07T23:11:58.036Z,19.67
2023-05-07T23:14:24.814Z,19.60
2023-05-07T23:16:51.625Z,19.64
2023-05-07T23:19:18.871Z,19.75
2023-05-07T23:21:45.790Z,20.02
2023-05-07T23:24:12.634Z,19.85
2023-05-07T23:26:39.409Z,19.96
2023-05-07T23:29:06.264Z,19.95
2023-05-07T23:31:33.212Z,20.03
2023-05-07T23:34:00.134Z,20.28
2023-05-07T23:36:27.160Z,19.96
2023-05-07T23:38:53.925Z,19.87
2023-05-07T23:41:21.145Z,19.84
2023-05-07T23:43:47.867Z,19.86
2023-05-07T23:46:14.636Z,19.95
2023-05-07T23:48:41.485Z,19.86
2023-05-07T23:54:08.147Z,23.20
2023-05-07T23:56:34.871Z,21.21
2023-05-07T23:59:01.613Z,21.23
